sensor_id;sensor_type;location;lat;lon;timestamp;pressure;altitude;pressure_sealevel;temperature;humidity
81931;BME280;71395;43.488;1.472;2023-12-14T00:00:24;99573.22;;;10.64;74.88
81931;BME280;71395;43.488;1.472;2023-12-14T00:02:49;99592.53;;;10.76;74.98
81931;BME280;71395;43.488;1.472;2023-12-14T00:05:15;99604.56;;;10.84;74.18
81931;BME280;71395;43.488;1.472;2023-12-14T00:07:40;99599.22;;;10.84;74.14
81931;BME280;71395;43.488;1.472;2023-12-14T00:10:06;99598.41;;;10.83;74.86
81931;BME280;71395;43.488;1.472;2023-12-14T00:12:32;99600.56;;;10.81;74.66
81931;BME280;71395;43.488;1.472;2023-12-14T00:14:57;99601.09;;;10.78;74.14
81931;BME280;71395;43.488;1.472;2023-12-14T00:17:23;99605.66;;;10.73;75.47
81931;BME280;71395;43.488;1.472;2023-12-14T00:19:48;99607.53;;;10.62;74.61
81931;BME280;71395;43.488;1.472;2023-12-14T00:22:13;99602.97;;;10.57;74.38
81931;BME280;71395;43.488;1.472;2023-12-14T00:24:39;99632.75;;;10.66;74.58
81931;BME280;71395;43.488;1.472;2023-12-14T00:27:04;99628.47;;;10.65;75.54
81931;BME280;71395;43.488;1.472;2023-12-14T00:29:30;99629.50;;;10.64;75.59
81931;BME280;71395;43.488;1.472;2023-12-14T00:31:55;99621.75;;;10.68;74.49
81931;BME280;71395;43.488;1.472;2023-12-14T00:34:21;99631.13;;;10.70;74.89
81931;BME280;71395;43.488;1.472;2023-12-14T00:36:46;99641.06;;;10.65;74.99
81931;BME280;71395;43.488;1.472;2023-12-14T00:39:12;99651.50;;;10.61;74.05
81931;BME280;71395;43.488;1.472;2023-12-14T00:41:38;99639.97;;;10.45;74.97
81931;BME280;71395;43.488;1.472;2023-12-14T00:44:03;99648.00;;;10.45;75.23
81931;BME280;71395;43.488;1.472;2023-12-14T00:46:29;99655.22;;;10.40;75.64
81931;BME280;71395;43.488;1.472;2023-12-14T00:48:54;99655.47;;;10.33;75.38
81931;BME280;71395;43.488;1.472;2023-12-14T00:51:20;99651.38;;;10.20;75.45
81931;BME280;71395;43.488;1.472;2023-12-14T00:53:45;99657.00;;;10.19;75.87
81931;BME280;71395;43.488;1.472;2023-12-14T00:56:11;99658.88;;;10.23;75.35
81931;BME280;71395;43.488;1.472;2023-12-14T00:58:36;99680.94;;;10.41;75.15
81931;BME280;71395;43.488;1.472;2023-12-14T01:01:02;99647.97;;;10.30;75.82
81931;BME280;71395;43.488;1.472;2023-12-14T01:03:27;99696.78;;;10.63;74.96
81931;BME280;71395;43.488;1.472;2023-12-14T01:05:53;99691.44;;;10.63;75.10
81931;BME280;71395;43.488;1.472;2023-12-14T01:08:18;99705.66;;;10.63;74.46
81931;BME280;71395;43.488;1.472;2023-12-14T01:10:44;99703.50;;;10.55;74.49
81931;BME280;71395;43.488;1.472;2023-12-14T01:13:09;99686.81;;;10.38;74.39
81931;BME280;71395;43.488;1.472;2023-12-14T01:15:35;99716.06;;;10.44;74.15
81931;BME280;71395;43.488;1.472;2023-12-14T01:18:00;99700.25;;;10.43;74.15
81931;BME280;71395;43.488;1.472;2023-12-14T01:20:26;99707.75;;;10.41;74.85
81931;BME280;71395;43.488;1.472;2023-12-14T01:22:51;99739.94;;;10.56;74.53
81931;BME280;71395;43.488;1.472;2023-12-14T01:25:16;99734.56;;;10.46;74.29
81931;BME280;71395;43.488;1.472;2023-12-14T01:27:42;99744.47;;;10.45;74.34
81931;BME280;71395;43.488;1.472;2023-12-14T01:30:08;99733.97;;;10.33;74.91
81931;BME280;71395;43.488;1.472;2023-12-14T01:32:33;99751.16;;;10.43;74.50
81931;BME280;71395;43.488;1.472;2023-12-14T01:34:59;99738.00;;;10.31;74.35
81931;BME280;71395;43.488;1.472;2023-12-14T01:37:24;99757.25;;;10.28;74.09
81931;BME280;71395;43.488;1.472;2023-12-14T01:39:49;99759.59;;;10.19;75.14
81931;BME280;71395;43.488;1.472;2023-12-14T01:42:15;99767.03;;;10.07;74.87
81931;BME280;71395;43.488;1.472;2023-12-14T01:44:40;99776.16;;;10.06;75.35
81931;BME280;71395;43.488;1.472;2023-12-14T01:47:06;99770.75;;;9.96;74.89
81931;BME280;71395;43.488;1.472;2023-12-14T01:49:31;99776.59;;;9.93;74.86
81931;BME280;71395;43.488;1.472;2023-12-14T01:51:56;99775.22;;;9.85;74.29
81931;BME280;71395;43.488;1.472;2023-12-14T01:54:22;99792.09;;;9.86;74.47
81931;BME280;71395;43.488;1.472;2023-12-14T01:56:47;99786.44;;;9.82;74.57
81931;BME280;71395;43.488;1.472;2023-12-14T01:59:13;99802.78;;;9.80;73.82
81931;BME280;71395;43.488;1.472;2023-12-14T02:01:43;99798.38;;;9.69;74.42
81931;BME280;71395;43.488;1.472;2023-12-14T02:04:10;99805.13;;;9.72;74.19
81931;BME280;71395;43.488;1.472;2023-12-14T02:06:36;99823.13;;;9.81;74.04
81931;BME280;71395;43.488;1.472;2023-12-14T02:09:02;99824.44;;;9.79;74.57
81931;BME280;71395;43.488;1.472;2023-12-14T02:11:27;99831.94;;;9.77;74.70
81931;BME280;71395;43.488;1.472;2023-12-14T02:13:53;99841.22;;;9.69;75.18
81931;BME280;71395;43.488;1.472;2023-12-14T02:16:18;99833.72;;;9.66;74.40
81931;BME280;71395;43.488;1.472;2023-12-14T02:18:44;99833.47;;;9.68;74.17
81931;BME280;71395;43.488;1.472;2023-12-14T02:21:10;99857.38;;;9.79;73.93
81931;BME280;71395;43.488;1.472;2023-12-14T02:23:43;99857.38;;;9.79;74.18
81931;BME280;71395;43.488;1.472;2023-12-14T02:26:08;99863.09;;;9.93;74.17
81931;BME280;71395;43.488;1.472;2023-12-14T02:28:34;99863.38;;;9.92;74.52
81931;BME280;71395;43.488;1.472;2023-12-14T02:30:59;99874.09;;;9.97;73.71
81931;BME280;71395;43.488;1.472;2023-12-14T02:33:25;99888.59;;;10.01;74.58
81931;BME280;71395;43.488;1.472;2023-12-14T02:35:50;99883.00;;;10.02;74.61
81931;BME280;71395;43.488;1.472;2023-12-14T02:38:16;99867.66;;;9.93;74.64
81931;BME280;71395;43.488;1.472;2023-12-14T02:40:41;99856.63;;;9.89;74.78
81931;BME280;71395;43.488;1.472;2023-12-14T02:43:06;99867.16;;;9.96;73.63
81931;BME280;71395;43.488;1.472;2023-12-14T02:45:32;99891.88;;;10.08;73.28
81931;BME280;71395;43.488;1.472;2023-12-14T02:47:57;99892.91;;;10.02;73.48
81931;BME280;71395;43.488;1.472;2023-12-14T02:50:23;99921.94;;;10.15;73.90
81931;BME280;71395;43.488;1.472;2023-12-14T02:52:48;99907.94;;;10.08;72.89
81931;BME280;71395;43.488;1.472;2023-12-14T02:55:14;99927.34;;;10.20;73.71
81931;BME280;71395;43.488;1.472;2023-12-14T02:57:39;99947.75;;;10.26;72.32
81931;BME280;71395;43.488;1.472;2023-12-14T03:00:05;99941.06;;;10.29;72.36
81931;BME280;71395;43.488;1.472;2023-12-14T03:02:31;99949.06;;;10.24;73.03
81931;BME280;71395;43.488;1.472;2023-12-14T03:04:56;99945.00;;;10.21;72.61
81931;BME280;71395;43.488;1.472;2023-12-14T03:07:22;99938.03;;;10.20;72.20
81931;BME280;71395;43.488;1.472;2023-12-14T03:09:47;99940.97;;;10.19;72.52
81931;BME280;71395;43.488;1.472;2023-12-14T03:12:13;99943.09;;;10.17;72.49
81931;BME280;71395;43.488;1.472;2023-12-14T03:14:38;99943.31;;;10.10;71.99
81931;BME280;71395;43.488;1.472;2023-12-14T03:17:07;99960.53;;;10.19;71.64
81931;BME280;71395;43.488;1.472;2023-12-14T03:19:38;99955.66;;;10.11;72.63
81931;BME280;71395;43.488;1.472;2023-12-14T03:22:04;99971.19;;;10.14;72.45
81931;BME280;71395;43.488;1.472;2023-12-14T03:24:29;99973.88;;;10.14;71.71
81931;BME280;71395;43.488;1.472;2023-12-14T03:26:54;99982.44;;;10.11;72.45
81931;BME280;71395;43.488;1.472;2023-12-14T03:29:20;99975.44;;;10.05;71.69
81931;BME280;71395;43.488;1.472;2023-12-14T03:31:46;99980.75;;;10.00;71.64
81931;BME280;71395;43.488;1.472;2023-12-14T03:34:12;99974.47;;;9.89;71.82
81931;BME280;71395;43.488;1.472;2023-12-14T03:36:38;99997.31;;;9.97;72.15
81931;BME280;71395;43.488;1.472;2023-12-14T03:39:03;100004.47;;;9.91;72.70
81931;BME280;71395;43.488;1.472;2023-12-14T03:41:28;100007.97;;;9.92;72.11
81931;BME280;71395;43.488;1.472;2023-12-14T03:43:54;100021.66;;;9.95;72.77
81931;BME280;71395;43.488;1.472;2023-12-14T03:46:19;100020.06;;;9.99;71.10
81931;BME280;71395;43.488;1.472;2023-12-14T03:48:45;99995.59;;;9.86;71.36
81931;BME280;71395;43.488;1.472;2023-12-14T03:51:10;100019.78;;;9.96;72.10
81931;BME280;71395;43.488;1.472;2023-12-14T03:53:36;100016.50;;;9.89;71.34
81931;BME280;71395;43.488;1.472;2023-12-14T03:56:01;100020.81;;;9.90;72.35
81931;BME280;71395;43.488;1.472;2023-12-14T03:58:26;100023.50;;;9.90;71.80
81931;BME280;71395;43.488;1.472;2023-12-14T04:00:52;100047.69;;;10.00;72.34
81931;BME280;71395;43.488;1.472;2023-12-14T04:03:18;100041.28;;;10.01;71.99
81931;BME280;71395;43.488;1.472;2023-12-14T04:05:43;100024.28;;;9.90;71.88
81931;BME280;71395;43.488;1.472;2023-12-14T04:08:10;100050.16;;;10.06;71.53
81931;BME280;71395;43.488;1.472;2023-12-14T04:10:35;100035.91;;;10.01;70.98
81931;BME280;71395;43.488;1.472;2023-12-14T04:13:00;100029.13;;;9.93;71.75
81931;BME280;71395;43.488;1.472;2023-12-14T04:15:26;100054.13;;;10.04;71.11
81931;BME280;71395;43.488;1.472;2023-12-14T04:17:51;100054.13;;;10.04;72.29
81931;BME280;71395;43.488;1.472;2023-12-14T04:20:17;100066.44;;;10.00;72.26
81931;BME280;71395;43.488;1.472;2023-12-14T04:22:43;100074.53;;;10.05;72.11
81931;BME280;71395;43.488;1.472;2023-12-14T04:25:09;100072.66;;;10.05;71.40
81931;BME280;71395;43.488;1.472;2023-12-14T04:27:34;100079.38;;;10.08;71.56
81931;BME280;71395;43.488;1.472;2023-12-14T04:30:00;100083.38;;;10.05;72.14
81931;BME280;71395;43.488;1.472;2023-12-14T04:32:25;100083.06;;;10.02;71.59
81931;BME280;71395;43.488;1.472;2023-12-14T04:34:51;100091.91;;;10.02;72.24
81931;BME280;71395;43.488;1.472;2023-12-14T04:37:16;100081.88;;;9.93;71.56
81931;BME280;71395;43.488;1.472;2023-12-14T04:39:42;100084.00;;;9.91;72.75
81931;BME280;71395;43.488;1.472;2023-12-14T04:42:07;100089.91;;;9.93;72.01
81931;BME280;71395;43.488;1.472;2023-12-14T04:44:33;100110.38;;;10.04;72.24
81931;BME280;71395;43.488;1.472;2023-12-14T04:46:58;100111.41;;;9.98;71.97
81931;BME280;71395;43.488;1.472;2023-12-14T04:49:24;100084.94;;;9.79;72.02
81931;BME280;71395;43.488;1.472;2023-12-14T04:51:49;100121.63;;;10.01;71.54
81931;BME280;71395;43.488;1.472;2023-12-14T04:54:15;100123.13;;;9.92;71.80
81931;BME280;71395;43.488;1.472;2023-12-14T04:56:40;100136.09;;;10.00;71.86
81931;BME280;71395;43.488;1.472;2023-12-14T04:59:07;100141.94;;;9.97;71.91
81931;BME280;71395;43.488;1.472;2023-12-14T05:01:32;100132.97;;;9.86;71.42
81931;BME280;71395;43.488;1.472;2023-12-14T05:03:58;100147.78;;;9.94;72.05
81931;BME280;71395;43.488;1.472;2023-12-14T05:06:23;100154.19;;;9.93;71.88
81931;BME280;71395;43.488;1.472;2023-12-14T05:08:48;100114.25;;;9.69;70.96
81931;BME280;71395;43.488;1.472;2023-12-14T05:11:14;100140.56;;;9.72;71.43
81931;BME280;71395;43.488;1.472;2023-12-14T05:13:40;100155.00;;;9.71;71.53
81931;BME280;71395;43.488;1.472;2023-12-14T05:16:06;100167.94;;;9.79;70.97
81931;BME280;71395;43.488;1.472;2023-12-14T05:18:32;100167.94;;;9.79;71.84
81931;BME280;71395;43.488;1.472;2023-12-14T05:20:58;100177.03;;;9.78;72.04
81931;BME280;71395;43.488;1.472;2023-12-14T05:23:24;100184.31;;;9.83;71.62
81931;BME280;71395;43.488;1.472;2023-12-14T05:25:50;100183.53;;;9.82;71.07
81931;BME280;71395;43.488;1.472;2023-12-14T05:28:15;100179.66;;;9.73;70.84
81931;BME280;71395;43.488;1.472;2023-12-14T05:30:41;100186.53;;;9.69;70.94
81931;BME280;71395;43.488;1.472;2023-12-14T05:33:06;100200.59;;;9.76;71.13
81931;BME280;71395;43.488;1.472;2023-12-14T05:35:32;100202.19;;;9.77;71.71
81931;BME280;71395;43.488;1.472;2023-12-14T05:37:57;100204.25;;;9.70;71.57
81931;BME280;71395;43.488;1.472;2023-12-14T05:40:23;100201.72;;;9.64;70.35
81931;BME280;71395;43.488;1.472;2023-12-14T05:42:49;100217.78;;;9.64;70.82
81931;BME280;71395;43.488;1.472;2023-12-14T05:45:14;100209.13;;;9.56;71.17
81931;BME280;71395;43.488;1.472;2023-12-14T05:47:40;100240.66;;;9.71;71.86
81931;BME280;71395;43.488;1.472;2023-12-14T05:50:07;100243.59;;;9.70;70.73
81931;BME280;71395;43.488;1.472;2023-12-14T05:52:34;100244.88;;;9.67;70.74
81931;BME280;71395;43.488;1.472;2023-12-14T05:55:00;100261.44;;;9.64;71.02
81931;BME280;71395;43.488;1.472;2023-12-14T05:57:25;100236.63;;;9.52;70.70
81931;BME280;71395;43.488;1.472;2023-12-14T05:59:51;100265.91;;;9.58;71.59
81931;BME280;71395;43.488;1.472;2023-12-14T06:02:16;100238.50;;;9.35;70.95
81931;BME280;71395;43.488;1.472;2023-12-14T06:04:42;100216.03;;;9.19;71.82
81931;BME280;71395;43.488;1.472;2023-12-14T06:07:07;100285.38;;;9.54;71.39
81931;BME280;71395;43.488;1.472;2023-12-14T06:09:34;100284.81;;;9.52;71.01
81931;BME280;71395;43.488;1.472;2023-12-14T06:12:03;100290.97;;;9.52;71.30
81931;BME280;71395;43.488;1.472;2023-12-14T06:14:29;100269.06;;;9.39;71.33
81931;BME280;71395;43.488;1.472;2023-12-14T06:16:55;100305.41;;;9.51;71.13
81931;BME280;71395;43.488;1.472;2023-12-14T06:19:21;100312.63;;;9.51;71.51
81931;BME280;71395;43.488;1.472;2023-12-14T06:21:47;100309.16;;;9.50;71.64
81931;BME280;71395;43.488;1.472;2023-12-14T06:24:13;100305.66;;;9.50;70.56
81931;BME280;71395;43.488;1.472;2023-12-14T06:26:42;100292.25;;;9.33;70.66
81931;BME280;71395;43.488;1.472;2023-12-14T06:29:08;100314.34;;;9.40;71.83
81931;BME280;71395;43.488;1.472;2023-12-14T06:31:34;100318.72;;;9.46;70.66
81931;BME280;71395;43.488;1.472;2023-12-14T06:33:59;100334.59;;;9.53;70.87
81931;BME280;71395;43.488;1.472;2023-12-14T06:36:28;100328.59;;;9.46;70.61
81931;BME280;71395;43.488;1.472;2023-12-14T06:38:55;100353.59;;;9.51;70.47
81931;BME280;71395;43.488;1.472;2023-12-14T06:41:21;100346.13;;;9.53;70.73
81931;BME280;71395;43.488;1.472;2023-12-14T06:43:48;100361.03;;;9.49;70.71
81931;BME280;71395;43.488;1.472;2023-12-14T06:46:13;100359.75;;;9.52;71.05
81931;BME280;71395;43.488;1.472;2023-12-14T06:48:39;100360.72;;;9.46;70.56
81931;BME280;71395;43.488;1.472;2023-12-14T06:51:05;100333.44;;;9.32;71.39
81931;BME280;71395;43.488;1.472;2023-12-14T06:53:30;100349.34;;;9.39;70.88
81931;BME280;71395;43.488;1.472;2023-12-14T06:55:55;100369.59;;;9.35;70.81
81931;BME280;71395;43.488;1.472;2023-12-14T06:58:21;100367.97;;;9.33;70.92
81931;BME280;71395;43.488;1.472;2023-12-14T07:00:46;100377.63;;;9.35;70.56
81931;BME280;71395;43.488;1.472;2023-12-14T07:03:13;100393.31;;;9.43;70.87
81931;BME280;71395;43.488;1.472;2023-12-14T07:05:39;100388.91;;;9.37;71.51
81931;BME280;71395;43.488;1.472;2023-12-14T07:08:04;100399.72;;;9.42;71.05
81931;BME280;71395;43.488;1.472;2023-12-14T07:10:30;100406.13;;;9.41;71.73
81931;BME280;71395;43.488;1.472;2023-12-14T07:12:55;100391.66;;;9.25;71.10
81931;BME280;71395;43.488;1.472;2023-12-14T07:15:21;100425.88;;;9.40;71.73
81931;BME280;71395;43.488;1.472;2023-12-14T07:17:46;100410.59;;;9.23;70.88
81931;BME280;71395;43.488;1.472;2023-12-14T07:20:12;100400.88;;;9.17;70.69
81931;BME280;71395;43.488;1.472;2023-12-14T07:22:38;100430.47;;;9.27;71.47
81931;BME280;71395;43.488;1.472;2023-12-14T07:25:04;100425.38;;;9.26;71.24
81931;BME280;71395;43.488;1.472;2023-12-14T07:27:29;100425.03;;;9.22;70.77
81931;BME280;71395;43.488;1.472;2023-12-14T07:29:55;100429.22;;;9.18;71.01
81931;BME280;71395;43.488;1.472;2023-12-14T07:32:21;100443.06;;;9.27;70.77
81931;BME280;71395;43.488;1.472;2023-12-14T07:34:47;100440.63;;;9.25;70.92
81931;BME280;71395;43.488;1.472;2023-12-14T07:37:13;100442.16;;;9.21;71.00
81931;BME280;71395;43.488;1.472;2023-12-14T07:39:38;100438.31;;;9.17;71.63
81931;BME280;71395;43.488;1.472;2023-12-14T07:42:04;100456.34;;;9.22;70.35
81931;BME280;71395;43.488;1.472;2023-12-14T07:44:30;100465.94;;;9.35;70.75
81931;BME280;71395;43.488;1.472;2023-12-14T07:46:58;100463.06;;;9.24;71.19
81931;BME280;71395;43.488;1.472;2023-12-14T07:49:25;100484.66;;;9.35;71.52
81931;BME280;71395;43.488;1.472;2023-12-14T07:51:51;100483.63;;;9.36;70.61
81931;BME280;71395;43.488;1.472;2023-12-14T07:54:17;100492.69;;;9.35;71.34
81931;BME280;71395;43.488;1.472;2023-12-14T07:56:42;100497.81;;;9.36;70.30
81931;BME280;71395;43.488;1.472;2023-12-14T07:59:08;100493.03;;;9.38;70.54
81931;BME280;71395;43.488;1.472;2023-12-14T08:01:34;100515.34;;;9.44;69.96
81931;BME280;71395;43.488;1.472;2023-12-14T08:04:00;100514.63;;;9.48;70.26
81931;BME280;71395;43.488;1.472;2023-12-14T08:06:25;100517.56;;;9.47;70.25
81931;BME280;71395;43.488;1.472;2023-12-14T08:08:51;100526.25;;;9.54;70.27
81931;BME280;71395;43.488;1.472;2023-12-14T08:11:16;100530.59;;;9.55;70.45
81931;BME280;71395;43.488;1.472;2023-12-14T08:13:42;100519.88;;;9.55;69.70
81931;BME280;71395;43.488;1.472;2023-12-14T08:16:08;100539.94;;;9.69;69.46
81931;BME280;71395;43.488;1.472;2023-12-14T08:18:33;100541.34;;;9.72;70.78
81931;BME280;71395;43.488;1.472;2023-12-14T08:20:59;100511.34;;;9.58;69.67
81931;BME280;71395;43.488;1.472;2023-12-14T08:23:24;100535.19;;;9.71;69.92
81931;BME280;71395;43.488;1.472;2023-12-14T08:25:53;100532.75;;;9.70;69.36
81931;BME280;71395;43.488;1.472;2023-12-14T08:28:22;100545.97;;;9.76;69.55
81931;BME280;71395;43.488;1.472;2023-12-14T08:30:48;100554.00;;;9.76;69.64
81931;BME280;71395;43.488;1.472;2023-12-14T08:33:14;100561.22;;;9.76;70.37
81931;BME280;71395;43.488;1.472;2023-12-14T08:35:39;100554.97;;;9.70;70.43
81931;BME280;71395;43.488;1.472;2023-12-14T08:38:04;100556.44;;;9.78;68.96
81931;BME280;71395;43.488;1.472;2023-12-14T08:40:30;100566.44;;;9.82;69.43
81931;BME280;71395;43.488;1.472;2023-12-14T08:42:57;100563.19;;;9.80;69.46
81931;BME280;71395;43.488;1.472;2023-12-14T08:45:22;100588.31;;;9.91;69.54
81931;BME280;71395;43.488;1.472;2023-12-14T08:47:48;100588.66;;;9.95;68.54
81931;BME280;71395;43.488;1.472;2023-12-14T08:50:13;100597.25;;;9.97;68.69
81931;BME280;71395;43.488;1.472;2023-12-14T08:52:39;100610.63;;;9.97;69.14
81931;BME280;71395;43.488;1.472;2023-12-14T08:55:05;100607.41;;;9.95;68.93
81931;BME280;71395;43.488;1.472;2023-12-14T08:57:30;100607.63;;;9.93;68.70
81931;BME280;71395;43.488;1.472;2023-12-14T08:59:56;100612.84;;;10.00;69.33
81931;BME280;71395;43.488;1.472;2023-12-14T09:02:22;100624.22;;;10.07;68.89
81931;BME280;71395;43.488;1.472;2023-12-14T09:04:47;100633.16;;;10.13;68.27
81931;BME280;71395;43.488;1.472;2023-12-14T09:07:13;100608.97;;;10.07;68.47
81931;BME280;71395;43.488;1.472;2023-12-14T09:09:38;100627.81;;;10.24;68.42
81931;BME280;71395;43.488;1.472;2023-12-14T09:12:04;100620.69;;;10.18;67.91
81931;BME280;71395;43.488;1.472;2023-12-14T09:14:29;100634.88;;;10.30;68.48
81931;BME280;71395;43.488;1.472;2023-12-14T09:16:55;100634.38;;;10.33;68.83
81931;BME280;71395;43.488;1.472;2023-12-14T09:19:21;100640.91;;;10.38;68.27
81931;BME280;71395;43.488;1.472;2023-12-14T09:21:46;100638.91;;;10.45;68.21
81931;BME280;71395;43.488;1.472;2023-12-14T09:24:12;100642.31;;;10.40;67.41
81931;BME280;71395;43.488;1.472;2023-12-14T09:26:37;100649.94;;;10.48;68.34
81931;BME280;71395;43.488;1.472;2023-12-14T09:29:03;100645.53;;;10.42;67.51
81931;BME280;71395;43.488;1.472;2023-12-14T09:31:29;100654.09;;;10.56;66.74
81931;BME280;71395;43.488;1.472;2023-12-14T09:33:54;100662.31;;;10.66;67.97
81931;BME280;71395;43.488;1.472;2023-12-14T09:36:20;100648.44;;;10.69;66.74
81931;BME280;71395;43.488;1.472;2023-12-14T09:38:45;100671.00;;;10.73;66.61
81931;BME280;71395;43.488;1.472;2023-12-14T09:41:11;100674.38;;;10.80;66.41
81931;BME280;71395;43.488;1.472;2023-12-14T09:43:37;100676.16;;;10.92;66.28
81931;BME280;71395;43.488;1.472;2023-12-14T09:46:03;100685.34;;;10.96;67.08
81931;BME280;71395;43.488;1.472;2023-12-14T09:48:29;100691.06;;;10.99;66.94
81931;BME280;71395;43.488;1.472;2023-12-14T09:50:55;100691.88;;;11.00;66.86
81931;BME280;71395;43.488;1.472;2023-12-14T09:53:21;100706.09;;;11.00;66.14
81931;BME280;71395;43.488;1.472;2023-12-14T09:55:46;100708.28;;;11.03;66.13
81931;BME280;71395;43.488;1.472;2023-12-14T09:58:12;100723.66;;;11.08;66.15
81931;BME280;71395;43.488;1.472;2023-12-14T10:00:41;100725.69;;;11.01;65.53
81931;BME280;71395;43.488;1.472;2023-12-14T10:03:34;100724.91;;;10.88;64.57
81931;BME280;71395;43.488;1.472;2023-12-14T10:05:59;100735.09;;;10.86;66.43
81931;BME280;71395;43.488;1.472;2023-12-14T10:08:27;100740.88;;;10.95;65.49
81931;BME280;71395;43.488;1.472;2023-12-14T10:10:54;100734.53;;;10.84;65.47
81931;BME280;71395;43.488;1.472;2023-12-14T10:13:22;100745.66;;;10.93;65.59
81931;BME280;71395;43.488;1.472;2023-12-14T10:16:00;100753.66;;;11.05;65.29
81931;BME280;71395;43.488;1.472;2023-12-14T10:18:26;100755.63;;;11.09;65.45
81931;BME280;71395;43.488;1.472;2023-12-14T10:20:52;100747.25;;;11.23;66.20
81931;BME280;71395;43.488;1.472;2023-12-14T10:23:18;100748.22;;;11.33;65.78
81931;BME280;71395;43.488;1.472;2023-12-14T10:25:43;100748.81;;;11.35;65.31
81931;BME280;71395;43.488;1.472;2023-12-14T10:28:16;100750.16;;;11.38;64.55
81931;BME280;71395;43.488;1.472;2023-12-14T10:30:42;100756.13;;;11.40;65.46
81931;BME280;71395;43.488;1.472;2023-12-14T10:33:07;100765.88;;;11.29;65.81
81931;BME280;71395;43.488;1.472;2023-12-14T10:35:33;100753.84;;;11.15;65.22
81931;BME280;71395;43.488;1.472;2023-12-14T10:38:05;100766.59;;;11.08;64.90
81931;BME280;71395;43.488;1.472;2023-12-14T10:40:32;100781.88;;;11.07;65.63
81931;BME280;71395;43.488;1.472;2023-12-14T10:42:59;100770.88;;;10.92;64.39
81931;BME280;71395;43.488;1.472;2023-12-14T10:45:29;100762.63;;;10.82;65.80
81931;BME280;71395;43.488;1.472;2023-12-14T10:47:56;100782.56;;;10.86;65.28
81931;BME280;71395;43.488;1.472;2023-12-14T10:50:24;100782.31;;;10.87;65.74
81931;BME280;71395;43.488;1.472;2023-12-14T10:52:50;100788.75;;;10.86;66.01
81931;BME280;71395;43.488;1.472;2023-12-14T10:55:33;100789.38;;;10.77;64.50
81931;BME280;71395;43.488;1.472;2023-12-14T10:58:03;100782.63;;;10.74;65.84
81931;BME280;71395;43.488;1.472;2023-12-14T11:00:28;100792.59;;;10.79;65.80
81931;BME280;71395;43.488;1.472;2023-12-14T11:02:54;100790.03;;;10.84;65.73
81931;BME280;71395;43.488;1.472;2023-12-14T11:05:22;100771.03;;;10.85;66.00
81931;BME280;71395;43.488;1.472;2023-12-14T11:08:02;100781.94;;;10.96;65.41
81931;BME280;71395;43.488;1.472;2023-12-14T11:10:39;100786.91;;;11.04;65.37
81931;BME280;71395;43.488;1.472;2023-12-14T11:13:09;100794.56;;;11.12;65.00
81931;BME280;71395;43.488;1.472;2023-12-14T11:15:40;100780.34;;;11.11;65.00
81931;BME280;71395;43.488;1.472;2023-12-14T11:23:14;100794.53;;;11.41;63.78
81931;BME280;71395;43.488;1.472;2023-12-14T11:25:40;100794.00;;;11.44;64.24
81931;BME280;71395;43.488;1.472;2023-12-14T11:28:06;100795.16;;;11.31;63.26
81931;BME280;71395;43.488;1.472;2023-12-14T11:30:34;100791.34;;;11.27;63.78
81931;BME280;71395;43.488;1.472;2023-12-14T11:33:00;100793.03;;;11.33;63.41
81931;BME280;71395;43.488;1.472;2023-12-14T11:35:26;100791.84;;;11.41;63.79
81931;BME280;71395;43.488;1.472;2023-12-14T11:37:51;100782.47;;;11.43;63.30
81931;BME280;71395;43.488;1.472;2023-12-14T11:40:18;100808.19;;;11.73;62.36
81931;BME280;71395;43.488;1.472;2023-12-14T11:43:01;100806.75;;;11.82;62.55
81931;BME280;71395;43.488;1.472;2023-12-14T11:45:27;100794.19;;;12.04;62.14
81931;BME280;71395;43.488;1.472;2023-12-14T11:47:53;100789.34;;;12.06;61.94
81931;BME280;71395;43.488;1.472;2023-12-14T11:50:19;100789.09;;;12.08;62.04
81931;BME280;71395;43.488;1.472;2023-12-14T11:52:45;100797.16;;;12.08;61.64
81931;BME280;71395;43.488;1.472;2023-12-14T11:55:11;100806.94;;;12.14;62.07
81931;BME280;71395;43.488;1.472;2023-12-14T11:57:37;100798.22;;;12.07;61.58
81931;BME280;71395;43.488;1.472;2023-12-14T12:00:02;100797.75;;;12.10;62.33
81931;BME280;71395;43.488;1.472;2023-12-14T12:02:29;100782.69;;;12.09;61.16
81931;BME280;71395;43.488;1.472;2023-12-14T12:04:54;100802.59;;;12.13;61.47
81931;BME280;71395;43.488;1.472;2023-12-14T12:07:20;100770.66;;;11.95;61.09
81931;BME280;71395;43.488;1.472;2023-12-14T12:09:46;100802.13;;;12.16;61.17
81931;BME280;71395;43.488;1.472;2023-12-14T12:12:12;100816.28;;;12.28;60.82
81931;BME280;71395;43.488;1.472;2023-12-14T12:14:39;100782.16;;;12.12;59.89
81931;BME280;71395;43.488;1.472;2023-12-14T12:17:06;100799.63;;;12.31;60.17
81931;BME280;71395;43.488;1.472;2023-12-14T12:19:33;100809.09;;;12.34;60.04
81931;BME280;71395;43.488;1.472;2023-12-14T12:21:59;100801.44;;;12.26;59.76
81931;BME280;71395;43.488;1.472;2023-12-14T12:24:25;100796.69;;;12.33;59.64
81931;BME280;71395;43.488;1.472;2023-12-14T12:26:50;100797.88;;;12.20;59.68
81931;BME280;71395;43.488;1.472;2023-12-14T12:29:16;100797.75;;;12.10;58.91
81931;BME280;71395;43.488;1.472;2023-12-14T12:31:41;100792.38;;;12.10;59.81
81931;BME280;71395;43.488;1.472;2023-12-14T12:34:08;100784.16;;;12.00;59.62
81931;BME280;71395;43.488;1.472;2023-12-14T12:36:34;100787.34;;;11.97;59.34
81931;BME280;71395;43.488;1.472;2023-12-14T12:38:59;100793.28;;;11.99;59.03
81931;BME280;71395;43.488;1.472;2023-12-14T12:41:25;100793.66;;;12.07;59.29
81931;BME280;71395;43.488;1.472;2023-12-14T12:43:50;100786.47;;;12.13;59.20
81931;BME280;71395;43.488;1.472;2023-12-14T12:46:16;100783.91;;;12.23;58.69
81931;BME280;71395;43.488;1.472;2023-12-14T12:48:41;100768.00;;;12.38;59.48
81931;BME280;71395;43.488;1.472;2023-12-14T12:51:07;100760.59;;;12.51;58.84
81931;BME280;71395;43.488;1.472;2023-12-14T12:53:32;100781.75;;;12.64;58.41
81931;BME280;71395;43.488;1.472;2023-12-14T12:55:58;100793.63;;;12.68;58.79